GZS weather

Abernathy Field
Pulaski, Tennessee, United States

Public forecast

Using degrees Fahrenheit for public forecast. Weather courtesy of forecast.io.

METAR (pilot weather report)

Closest report is Ellington Airport, 24.6 nm (45.5 km) NNE. Retrieved 2019/08/25 04:35 UTC (0 seconds ago):

KLUG 250435Z AUTO 00000KT 10SM CLR 21/21 A3003 RMK A01

TAF (pilot weather forecast)

Forecast is more than 12 hours old.

Closest forecast is Huntsville International Carl T Jones Field, 34.0 nm (62.9 km) SSE. Retrieved 2019/08/24 00:22 UTC (1 day ago):

TAF KHSV 242320Z 2500/2524 VRB05KT P6SM VCTS SCT035CB BKN250 TEMPO 2500/2502 4SM TSRA BR BKN025CB FM250300 11002KT P6SM SCT015 BKN025 OVC150 FM250800 13005KT 6SM BR BKN012 FM251000 10005KT 4SM BR OVC007 FM251500 12006KT 6SM BR VCSH OVC015 FM252000 12006KT P6SM -SHRA OVC025